sensor_id;sensor_type;location;lat;lon;timestamp;temperature;humidity
34740;DHT22;20967;48.442;9.994;2023-06-14T00:00:52;11.60;99.90
34740;DHT22;20967;48.442;9.994;2023-06-14T00:03:20;11.60;99.90
34740;DHT22;20967;48.442;9.994;2023-06-14T00:05:49;11.50;99.90
34740;DHT22;20967;48.442;9.994;2023-06-14T00:08:16;11.50;99.90
34740;DHT22;20967;48.442;9.994;2023-06-14T00:10:45;11.60;99.90
34740;DHT22;20967;48.442;9.994;2023-06-14T00:13:13;11.70;99.90
34740;DHT22;20967;48.442;9.994;2023-06-14T00:15:41;11.60;99.90
34740;DHT22;20967;48.442;9.994;2023-06-14T00:18:09;11.60;99.90
34740;DHT22;20967;48.442;9.994;2023-06-14T00:20:38;11.60;99.90
34740;DHT22;20967;48.442;9.994;2023-06-14T00:23:08;11.30;99.90
34740;DHT22;20967;48.442;9.994;2023-06-14T00:25:36;11.40;99.90
34740;DHT22;20967;48.442;9.994;2023-06-14T00:28:05;11.40;99.90
34740;DHT22;20967;48.442;9.994;2023-06-14T00:30:33;11.30;99.90
34740;DHT22;20967;48.442;9.994;2023-06-14T00:33:01;11.20;99.90
34740;DHT22;20967;48.442;9.994;2023-06-14T00:35:28;11.20;99.90
34740;DHT22;20967;48.442;9.994;2023-06-14T00:37:56;11.10;99.90
34740;DHT22;20967;48.442;9.994;2023-06-14T00:40:24;11.20;99.90
34740;DHT22;20967;48.442;9.994;2023-06-14T00:42:52;11.20;99.90
34740;DHT22;20967;48.442;9.994;2023-06-14T00:45:20;11.10;99.90
34740;DHT22;20967;48.442;9.994;2023-06-14T00:47:50;11.10;99.90
34740;DHT22;20967;48.442;9.994;2023-06-14T00:50:20;11.00;99.90
34740;DHT22;20967;48.442;9.994;2023-06-14T00:52:50;11.00;99.90
34740;DHT22;20967;48.442;9.994;2023-06-14T00:55:18;11.00;99.90
34740;DHT22;20967;48.442;9.994;2023-06-14T00:57:45;10.90;99.90
34740;DHT22;20967;48.442;9.994;2023-06-14T01:00:14;10.80;99.90
34740;DHT22;20967;48.442;9.994;2023-06-14T01:02:42;10.90;99.90
34740;DHT22;20967;48.442;9.994;2023-06-14T01:05:12;10.80;99.90
34740;DHT22;20967;48.442;9.994;2023-06-14T01:10:47;10.70;99.90
34740;DHT22;20967;48.442;9.994;2023-06-14T01:13:19;10.80;99.90
34740;DHT22;20967;48.442;9.994;2023-06-14T01:15:45;10.80;99.90
34740;DHT22;20967;48.442;9.994;2023-06-14T01:18:14;10.80;99.90
34740;DHT22;20967;48.442;9.994;2023-06-14T01:20:46;10.80;99.90
34740;DHT22;20967;48.442;9.994;2023-06-14T01:23:21;10.80;99.90
34740;DHT22;20967;48.442;9.994;2023-06-14T01:25:53;10.90;99.90
34740;DHT22;20967;48.442;9.994;2023-06-14T01:28:22;11.00;99.90
34740;DHT22;20967;48.442;9.994;2023-06-14T01:30:54;10.90;99.90
34740;DHT22;20967;48.442;9.994;2023-06-14T01:33:24;11.00;99.90
34740;DHT22;20967;48.442;9.994;2023-06-14T01:35:53;11.00;99.90
34740;DHT22;20967;48.442;9.994;2023-06-14T01:38:24;10.90;99.90
34740;DHT22;20967;48.442;9.994;2023-06-14T01:40:56;10.90;99.90
34740;DHT22;20967;48.442;9.994;2023-06-14T01:43:25;10.80;99.90
34740;DHT22;20967;48.442;9.994;2023-06-14T01:45:55;10.70;99.90
34740;DHT22;20967;48.442;9.994;2023-06-14T01:48:25;10.70;99.90
34740;DHT22;20967;48.442;9.994;2023-06-14T01:50:53;10.70;99.90
34740;DHT22;20967;48.442;9.994;2023-06-14T01:53:20;10.70;99.90
34740;DHT22;20967;48.442;9.994;2023-06-14T01:55:49;10.70;99.90
34740;DHT22;20967;48.442;9.994;2023-06-14T01:58:17;10.70;99.90
34740;DHT22;20967;48.442;9.994;2023-06-14T02:00:44;10.70;99.90
34740;DHT22;20967;48.442;9.994;2023-06-14T02:03:14;10.70;99.90
34740;DHT22;20967;48.442;9.994;2023-06-14T02:05:42;10.60;99.90
34740;DHT22;20967;48.442;9.994;2023-06-14T02:08:10;10.60;99.90
34740;DHT22;20967;48.442;9.994;2023-06-14T02:10:38;10.60;99.90
34740;DHT22;20967;48.442;9.994;2023-06-14T02:13:06;10.60;99.90
34740;DHT22;20967;48.442;9.994;2023-06-14T02:15:34;10.50;99.90
34740;DHT22;20967;48.442;9.994;2023-06-14T02:18:04;10.50;99.90
34740;DHT22;20967;48.442;9.994;2023-06-14T02:20:31;10.40;99.90
34740;DHT22;20967;48.442;9.994;2023-06-14T02:22:59;10.40;99.90
34740;DHT22;20967;48.442;9.994;2023-06-14T02:25:27;10.60;99.90
34740;DHT22;20967;48.442;9.994;2023-06-14T02:27:55;10.50;99.90
34740;DHT22;20967;48.442;9.994;2023-06-14T02:30:23;10.40;99.90
34740;DHT22;20967;48.442;9.994;2023-06-14T02:32:51;10.40;99.90
34740;DHT22;20967;48.442;9.994;2023-06-14T02:35:24;10.60;99.90
34740;DHT22;20967;48.442;9.994;2023-06-14T02:37:55;10.70;99.90
34740;DHT22;20967;48.442;9.994;2023-06-14T02:40:23;10.60;99.90
34740;DHT22;20967;48.442;9.994;2023-06-14T02:42:51;10.50;99.90
34740;DHT22;20967;48.442;9.994;2023-06-14T02:45:20;10.40;99.90
34740;DHT22;20967;48.442;9.994;2023-06-14T02:47:48;10.50;99.90
34740;DHT22;20967;48.442;9.994;2023-06-14T02:50:19;10.50;99.90
34740;DHT22;20967;48.442;9.994;2023-06-14T02:52:48;10.40;99.90
34740;DHT22;20967;48.442;9.994;2023-06-14T02:55:20;10.40;99.90
34740;DHT22;20967;48.442;9.994;2023-06-14T02:57:50;10.60;99.90
34740;DHT22;20967;48.442;9.994;2023-06-14T03:00:19;10.50;99.90
34740;DHT22;20967;48.442;9.994;2023-06-14T03:02:47;10.30;99.90
34740;DHT22;20967;48.442;9.994;2023-06-14T03:05:16;10.20;99.90
34740;DHT22;20967;48.442;9.994;2023-06-14T03:07:45;10.30;99.90
34740;DHT22;20967;48.442;9.994;2023-06-14T03:10:14;10.30;99.90
34740;DHT22;20967;48.442;9.994;2023-06-14T03:12:44;10.30;99.90
34740;DHT22;20967;48.442;9.994;2023-06-14T03:15:11;10.20;99.90
34740;DHT22;20967;48.442;9.994;2023-06-14T03:17:39;10.30;99.90
34740;DHT22;20967;48.442;9.994;2023-06-14T03:20:07;10.20;99.90
34740;DHT22;20967;48.442;9.994;2023-06-14T03:22:35;10.20;99.90
34740;DHT22;20967;48.442;9.994;2023-06-14T03:25:04;10.20;99.90
34740;DHT22;20967;48.442;9.994;2023-06-14T03:27:32;10.20;99.90
34740;DHT22;20967;48.442;9.994;2023-06-14T03:30:00;10.40;99.90
34740;DHT22;20967;48.442;9.994;2023-06-14T03:32:28;10.60;99.90
34740;DHT22;20967;48.442;9.994;2023-06-14T03:34:57;10.80;99.90
34740;DHT22;20967;48.442;9.994;2023-06-14T03:37:25;11.20;99.90
34740;DHT22;20967;48.442;9.994;2023-06-14T03:39:53;11.50;99.90
34740;DHT22;20967;48.442;9.994;2023-06-14T03:42:21;11.80;99.90
34740;DHT22;20967;48.442;9.994;2023-06-14T03:44:48;12.20;99.90
34740;DHT22;20967;48.442;9.994;2023-06-14T03:47:16;12.60;99.90
34740;DHT22;20967;48.442;9.994;2023-06-14T03:49:44;12.90;99.90
34740;DHT22;20967;48.442;9.994;2023-06-14T03:52:12;13.20;99.90
34740;DHT22;20967;48.442;9.994;2023-06-14T03:54:40;13.80;99.90
34740;DHT22;20967;48.442;9.994;2023-06-14T03:57:10;14.30;99.90
34740;DHT22;20967;48.442;9.994;2023-06-14T03:59:40;14.30;99.90
34740;DHT22;20967;48.442;9.994;2023-06-14T04:02:08;14.90;99.90
34740;DHT22;20967;48.442;9.994;2023-06-14T04:04:37;14.90;99.90
34740;DHT22;20967;48.442;9.994;2023-06-14T04:07:05;15.20;99.90
34740;DHT22;20967;48.442;9.994;2023-06-14T04:09:34;15.10;99.90
34740;DHT22;20967;48.442;9.994;2023-06-14T04:12:02;15.40;99.90
34740;DHT22;20967;48.442;9.994;2023-06-14T04:14:30;15.80;99.90
34740;DHT22;20967;48.442;9.994;2023-06-14T04:16:59;16.30;99.90
34740;DHT22;20967;48.442;9.994;2023-06-14T04:19:27;17.20;99.90
34740;DHT22;20967;48.442;9.994;2023-06-14T04:21:55;17.40;99.90
34740;DHT22;20967;48.442;9.994;2023-06-14T04:24:23;17.50;99.90
34740;DHT22;20967;48.442;9.994;2023-06-14T04:26:52;17.90;99.90
34740;DHT22;20967;48.442;9.994;2023-06-14T04:29:20;18.10;99.90
34740;DHT22;20967;48.442;9.994;2023-06-14T04:31:50;18.10;99.90
34740;DHT22;20967;48.442;9.994;2023-06-14T04:34:18;18.20;99.90
34740;DHT22;20967;48.442;9.994;2023-06-14T04:36:46;18.60;99.90
34740;DHT22;20967;48.442;9.994;2023-06-14T04:39:20;19.10;99.90
34740;DHT22;20967;48.442;9.994;2023-06-14T04:41:48;19.10;99.90
34740;DHT22;20967;48.442;9.994;2023-06-14T04:44:20;18.90;99.90
34740;DHT22;20967;48.442;9.994;2023-06-14T04:46:50;19.00;99.90
34740;DHT22;20967;48.442;9.994;2023-06-14T04:49:18;19.50;99.90
34740;DHT22;20967;48.442;9.994;2023-06-14T04:51:46;19.70;99.90
34740;DHT22;20967;48.442;9.994;2023-06-14T04:54:15;19.40;99.90
34740;DHT22;20967;48.442;9.994;2023-06-14T04:56:44;19.60;99.90
34740;DHT22;20967;48.442;9.994;2023-06-14T04:59:13;19.40;99.90
34740;DHT22;20967;48.442;9.994;2023-06-14T05:01:41;19.20;99.90
34740;DHT22;20967;48.442;9.994;2023-06-14T05:04:11;19.10;99.90
34740;DHT22;20967;48.442;9.994;2023-06-14T05:06:38;18.80;99.90
34740;DHT22;20967;48.442;9.994;2023-06-14T05:09:07;18.90;99.90
34740;DHT22;20967;48.442;9.994;2023-06-14T05:11:34;19.10;99.90
34740;DHT22;20967;48.442;9.994;2023-06-14T05:14:02;19.00;99.90
34740;DHT22;20967;48.442;9.994;2023-06-14T05:16:30;19.30;99.90
34740;DHT22;20967;48.442;9.994;2023-06-14T05:18:58;19.20;99.90
34740;DHT22;20967;48.442;9.994;2023-06-14T05:21:25;19.90;99.90
34740;DHT22;20967;48.442;9.994;2023-06-14T05:23:53;20.10;99.90
34740;DHT22;20967;48.442;9.994;2023-06-14T05:26:22;19.80;99.90
34740;DHT22;20967;48.442;9.994;2023-06-14T05:28:58;19.80;99.90
34740;DHT22;20967;48.442;9.994;2023-06-14T05:31:27;19.10;99.90
34740;DHT22;20967;48.442;9.994;2023-06-14T05:33:58;19.70;99.90
34740;DHT22;20967;48.442;9.994;2023-06-14T05:36:26;19.50;99.90
34740;DHT22;20967;48.442;9.994;2023-06-14T05:38:54;19.50;99.90
34740;DHT22;20967;48.442;9.994;2023-06-14T05:41:26;19.20;99.90
34740;DHT22;20967;48.442;9.994;2023-06-14T05:43:57;19.30;99.90
34740;DHT22;20967;48.442;9.994;2023-06-14T05:46:26;19.30;99.90
34740;DHT22;20967;48.442;9.994;2023-06-14T05:48:55;19.60;99.90
34740;DHT22;20967;48.442;9.994;2023-06-14T05:51:23;19.60;99.90
34740;DHT22;20967;48.442;9.994;2023-06-14T05:53:51;19.40;99.90
34740;DHT22;20967;48.442;9.994;2023-06-14T05:56:22;19.00;99.90
34740;DHT22;20967;48.442;9.994;2023-06-14T05:58:50;19.10;99.90
34740;DHT22;20967;48.442;9.994;2023-06-14T06:01:17;18.90;99.90
34740;DHT22;20967;48.442;9.994;2023-06-14T06:03:47;18.90;99.90
34740;DHT22;20967;48.442;9.994;2023-06-14T06:06:15;19.20;99.90
34740;DHT22;20967;48.442;9.994;2023-06-14T06:08:43;19.50;99.90
34740;DHT22;20967;48.442;9.994;2023-06-14T06:11:11;19.20;99.90
34740;DHT22;20967;48.442;9.994;2023-06-14T06:13:40;19.00;99.90
34740;DHT22;20967;48.442;9.994;2023-06-14T06:16:15;19.30;99.90
34740;DHT22;20967;48.442;9.994;2023-06-14T06:18:42;18.60;99.90
34740;DHT22;20967;48.442;9.994;2023-06-14T06:21:10;18.60;99.90
34740;DHT22;20967;48.442;9.994;2023-06-14T06:23:40;18.30;99.90
34740;DHT22;20967;48.442;9.994;2023-06-14T06:26:07;18.20;99.90
34740;DHT22;20967;48.442;9.994;2023-06-14T06:28:35;17.50;99.90
34740;DHT22;20967;48.442;9.994;2023-06-14T06:31:02;17.10;99.90
34740;DHT22;20967;48.442;9.994;2023-06-14T06:33:30;17.20;99.90
34740;DHT22;20967;48.442;9.994;2023-06-14T06:35:58;17.00;99.90
34740;DHT22;20967;48.442;9.994;2023-06-14T06:38:26;16.60;99.90
34740;DHT22;20967;48.442;9.994;2023-06-14T06:40:53;16.80;99.90
34740;DHT22;20967;48.442;9.994;2023-06-14T06:43:23;16.70;99.90
34740;DHT22;20967;48.442;9.994;2023-06-14T06:45:51;16.80;99.90
34740;DHT22;20967;48.442;9.994;2023-06-14T06:48:18;16.60;99.90
34740;DHT22;20967;48.442;9.994;2023-06-14T06:50:46;16.60;99.90
34740;DHT22;20967;48.442;9.994;2023-06-14T06:53:14;16.70;99.90
34740;DHT22;20967;48.442;9.994;2023-06-14T06:55:42;16.60;99.90
34740;DHT22;20967;48.442;9.994;2023-06-14T06:58:09;16.50;99.90
34740;DHT22;20967;48.442;9.994;2023-06-14T07:00:37;16.70;99.90
34740;DHT22;20967;48.442;9.994;2023-06-14T07:03:05;16.70;99.90
34740;DHT22;20967;48.442;9.994;2023-06-14T07:05:33;16.80;99.90
34740;DHT22;20967;48.442;9.994;2023-06-14T07:08:01;16.90;99.90
34740;DHT22;20967;48.442;9.994;2023-06-14T07:10:29;16.60;99.90
34740;DHT22;20967;48.442;9.994;2023-06-14T07:12:58;16.70;99.90
34740;DHT22;20967;48.442;9.994;2023-06-14T07:15:26;16.60;99.90
34740;DHT22;20967;48.442;9.994;2023-06-14T07:17:54;16.70;99.90
34740;DHT22;20967;48.442;9.994;2023-06-14T07:20:23;16.70;99.90
34740;DHT22;20967;48.442;9.994;2023-06-14T07:22:51;17.10;99.90
34740;DHT22;20967;48.442;9.994;2023-06-14T07:25:19;17.40;99.90
34740;DHT22;20967;48.442;9.994;2023-06-14T07:27:48;17.20;99.90
34740;DHT22;20967;48.442;9.994;2023-06-14T07:30:18;17.00;99.90
34740;DHT22;20967;48.442;9.994;2023-06-14T07:32:46;17.00;99.90
34740;DHT22;20967;48.442;9.994;2023-06-14T07:35:19;17.00;99.90
34740;DHT22;20967;48.442;9.994;2023-06-14T07:37:46;17.00;99.90
34740;DHT22;20967;48.442;9.994;2023-06-14T07:40:14;17.10;99.90
34740;DHT22;20967;48.442;9.994;2023-06-14T07:42:42;17.30;99.90
34740;DHT22;20967;48.442;9.994;2023-06-14T07:45:11;17.00;99.90
34740;DHT22;20967;48.442;9.994;2023-06-14T07:47:39;17.10;99.90
34740;DHT22;20967;48.442;9.994;2023-06-14T07:50:09;17.30;99.90
34740;DHT22;20967;48.442;9.994;2023-06-14T07:52:39;17.30;99.90
34740;DHT22;20967;48.442;9.994;2023-06-14T07:55:07;17.30;99.90
34740;DHT22;20967;48.442;9.994;2023-06-14T07:57:36;17.20;99.90
34740;DHT22;20967;48.442;9.994;2023-06-14T08:00:04;17.40;99.90
34740;DHT22;20967;48.442;9.994;2023-06-14T08:02:33;17.50;99.90
34740;DHT22;20967;48.442;9.994;2023-06-14T08:05:01;17.10;99.90
34740;DHT22;20967;48.442;9.994;2023-06-14T08:07:29;17.40;99.90
34740;DHT22;20967;48.442;9.994;2023-06-14T08:09:57;17.40;99.90
34740;DHT22;20967;48.442;9.994;2023-06-14T08:12:24;17.60;99.90
34740;DHT22;20967;48.442;9.994;2023-06-14T08:14:52;17.40;99.90
34740;DHT22;20967;48.442;9.994;2023-06-14T08:17:20;17.80;99.90
34740;DHT22;20967;48.442;9.994;2023-06-14T08:19:48;17.80;99.90
34740;DHT22;20967;48.442;9.994;2023-06-14T08:22:16;18.10;99.90
34740;DHT22;20967;48.442;9.994;2023-06-14T08:24:44;17.90;99.90
34740;DHT22;20967;48.442;9.994;2023-06-14T08:27:14;17.80;99.90
34740;DHT22;20967;48.442;9.994;2023-06-14T08:29:42;17.70;99.90
34740;DHT22;20967;48.442;9.994;2023-06-14T08:32:10;17.90;99.90
34740;DHT22;20967;48.442;9.994;2023-06-14T08:34:38;17.80;99.90
34740;DHT22;20967;48.442;9.994;2023-06-14T08:37:08;18.00;99.90
34740;DHT22;20967;48.442;9.994;2023-06-14T08:39:35;18.00;99.90
34740;DHT22;20967;48.442;9.994;2023-06-14T08:42:03;18.10;99.90
34740;DHT22;20967;48.442;9.994;2023-06-14T08:44:34;18.20;99.90
34740;DHT22;20967;48.442;9.994;2023-06-14T08:47:02;18.60;99.90
34740;DHT22;20967;48.442;9.994;2023-06-14T08:49:33;18.60;99.90
34740;DHT22;20967;48.442;9.994;2023-06-14T08:52:01;19.00;99.90
34740;DHT22;20967;48.442;9.994;2023-06-14T08:54:31;18.70;99.90
34740;DHT22;20967;48.442;9.994;2023-06-14T08:57:01;18.70;99.90
34740;DHT22;20967;48.442;9.994;2023-06-14T08:59:31;18.70;99.90
34740;DHT22;20967;48.442;9.994;2023-06-14T09:02:00;18.90;99.90
34740;DHT22;20967;48.442;9.994;2023-06-14T09:04:29;18.70;99.90
34740;DHT22;20967;48.442;9.994;2023-06-14T09:06:59;18.80;99.90
34740;DHT22;20967;48.442;9.994;2023-06-14T09:09:29;18.90;99.90
34740;DHT22;20967;48.442;9.994;2023-06-14T09:11:57;18.70;99.90
34740;DHT22;20967;48.442;9.994;2023-06-14T09:14:26;18.80;99.90
34740;DHT22;20967;48.442;9.994;2023-06-14T09:16:54;19.20;99.90
34740;DHT22;20967;48.442;9.994;2023-06-14T09:19:23;19.10;99.90
34740;DHT22;20967;48.442;9.994;2023-06-14T09:21:53;19.10;99.90
34740;DHT22;20967;48.442;9.994;2023-06-14T09:24:24;18.90;99.90
34740;DHT22;20967;48.442;9.994;2023-06-14T09:26:53;18.80;99.90
34740;DHT22;20967;48.442;9.994;2023-06-14T09:29:21;19.10;99.90
34740;DHT22;20967;48.442;9.994;2023-06-14T09:31:49;19.10;99.90
34740;DHT22;20967;48.442;9.994;2023-06-14T09:34:17;19.40;99.90
34740;DHT22;20967;48.442;9.994;2023-06-14T09:36:50;19.60;99.90
34740;DHT22;20967;48.442;9.994;2023-06-14T09:39:18;20.10;99.90
34740;DHT22;20967;48.442;9.994;2023-06-14T09:41:46;20.20;99.90
34740;DHT22;20967;48.442;9.994;2023-06-14T09:44:15;20.30;99.90
34740;DHT22;20967;48.442;9.994;2023-06-14T09:46:44;19.60;99.90
34740;DHT22;20967;48.442;9.994;2023-06-14T09:49:12;20.00;99.90
34740;DHT22;20967;48.442;9.994;2023-06-14T09:51:42;19.90;99.90
34740;DHT22;20967;48.442;9.994;2023-06-14T09:54:20;20.20;99.90
34740;DHT22;20967;48.442;9.994;2023-06-14T09:56:46;20.00;99.90
34740;DHT22;20967;48.442;9.994;2023-06-14T09:59:25;19.80;99.90
34740;DHT22;20967;48.442;9.994;2023-06-14T10:01:48;19.90;99.90
34740;DHT22;20967;48.442;9.994;2023-06-14T10:04:19;19.90;99.90
34740;DHT22;20967;48.442;9.994;2023-06-14T10:06:48;19.70;99.90
34740;DHT22;20967;48.442;9.994;2023-06-14T10:09:18;19.70;99.90
34740;DHT22;20967;48.442;9.994;2023-06-14T10:11:48;19.60;99.90
34740;DHT22;20967;48.442;9.994;2023-06-14T10:14:17;19.40;99.90
34740;DHT22;20967;48.442;9.994;2023-06-14T10:16:56;19.60;99.90
34740;DHT22;20967;48.442;9.994;2023-06-14T10:22:18;19.70;99.90
34740;DHT22;20967;48.442;9.994;2023-06-14T10:24:35;20.00;99.90
34740;DHT22;20967;48.442;9.994;2023-06-14T10:27:03;19.90;99.90
34740;DHT22;20967;48.442;9.994;2023-06-14T10:29:34;20.00;99.90
34740;DHT22;20967;48.442;9.994;2023-06-14T10:32:02;20.60;99.90
34740;DHT22;20967;48.442;9.994;2023-06-14T10:34:31;20.50;99.90
34740;DHT22;20967;48.442;9.994;2023-06-14T10:37:07;20.60;99.90
34740;DHT22;20967;48.442;9.994;2023-06-14T10:39:41;20.50;99.90
34740;DHT22;20967;48.442;9.994;2023-06-14T10:42:10;20.40;99.90
34740;DHT22;20967;48.442;9.994;2023-06-14T10:50:10;20.40;99.90
34740;DHT22;20967;48.442;9.994;2023-06-14T10:52:41;20.60;99.90
34740;DHT22;20967;48.442;9.994;2023-06-14T10:55:14;21.10;99.90
34740;DHT22;20967;48.442;9.994;2023-06-14T10:57:53;20.80;99.90
34740;DHT22;20967;48.442;9.994;2023-06-14T11:00:18;20.80;99.90
34740;DHT22;20967;48.442;9.994;2023-06-14T11:08:19;20.50;99.90
34740;DHT22;20967;48.442;9.994;2023-06-14T11:10:46;20.80;99.90
34740;DHT22;20967;48.442;9.994;2023-06-14T11:13:16;20.60;99.90
34740;DHT22;20967;48.442;9.994;2023-06-14T11:15:47;20.50;99.90
34740;DHT22;20967;48.442;9.994;2023-06-14T11:18:16;20.60;99.90
34740;DHT22;20967;48.442;9.994;2023-06-14T11:20:46;20.40;99.90
34740;DHT22;20967;48.442;9.994;2023-06-14T11:23:14;20.60;99.90
34740;DHT22;20967;48.442;9.994;2023-06-14T11:25:49;20.80;99.90
34740;DHT22;20967;48.442;9.994;2023-06-14T11:28:13;20.90;99.90
34740;DHT22;20967;48.442;9.994;2023-06-14T11:30:41;20.90;99.90
34740;DHT22;20967;48.442;9.994;2023-06-14T11:33:10;21.20;99.90
34740;DHT22;20967;48.442;9.994;2023-06-14T11:35:38;20.80;99.90
34740;DHT22;20967;48.442;9.994;2023-06-14T11:38:06;20.80;99.90
34740;DHT22;20967;48.442;9.994;2023-06-14T11:40:37;21.20;99.90
34740;DHT22;20967;48.442;9.994;2023-06-14T11:43:05;21.00;99.90
34740;DHT22;20967;48.442;9.994;2023-06-14T11:45:33;21.50;99.90
34740;DHT22;20967;48.442;9.994;2023-06-14T11:48:03;21.90;99.90
34740;DHT22;20967;48.442;9.994;2023-06-14T11:50:30;22.10;99.90
34740;DHT22;20967;48.442;9.994;2023-06-14T11:53:00;21.60;99.90
34740;DHT22;20967;48.442;9.994;2023-06-14T11:55:31;21.40;99.90
34740;DHT22;20967;48.442;9.994;2023-06-14T11:57:59;21.60;99.90
34740;DHT22;20967;48.442;9.994;2023-06-14T12:00:27;22.10;99.90
34740;DHT22;20967;48.442;9.994;2023-06-14T12:02:58;22.60;99.90
34740;DHT22;20967;48.442;9.994;2023-06-14T12:05:27;22.90;99.90
34740;DHT22;20967;48.442;9.994;2023-06-14T12:08:02;23.00;99.90
34740;DHT22;20967;48.442;9.994;2023-06-14T12:10:33;23.20;99.90
34740;DHT22;20967;48.442;9.994;2023-06-14T12:13:01;23.00;99.90
34740;DHT22;20967;48.442;9.994;2023-06-14T12:15:29;22.40;99.90
34740;DHT22;20967;48.442;9.994;2023-06-14T12:18:00;22.10;99.90
34740;DHT22;20967;48.442;9.994;2023-06-14T12:20:30;21.90;99.90
34740;DHT22;20967;48.442;9.994;2023-06-14T12:22:59;21.90;99.90
34740;DHT22;20967;48.442;9.994;2023-06-14T12:25:31;21.70;99.90
34740;DHT22;20967;48.442;9.994;2023-06-14T12:28:04;21.20;99.90
34740;DHT22;20967;48.442;9.994;2023-06-14T12:30:33;21.30;99.90
34740;DHT22;20967;48.442;9.994;2023-06-14T12:33:03;21.40;99.90
34740;DHT22;20967;48.442;9.994;2023-06-14T12:35:32;21.80;99.90
34740;DHT22;20967;48.442;9.994;2023-06-14T12:38:00;22.20;99.90
34740;DHT22;20967;48.442;9.994;2023-06-14T12:40:29;22.10;99.90
34740;DHT22;20967;48.442;9.994;2023-06-14T12:42:58;22.00;99.90
34740;DHT22;20967;48.442;9.994;2023-06-14T12:45:26;22.20;99.90
34740;DHT22;20967;48.442;9.994;2023-06-14T12:47:53;22.30;99.90
34740;DHT22;20967;48.442;9.994;2023-06-14T12:50:21;22.20;99.90
34740;DHT22;20967;48.442;9.994;2023-06-14T12:52:49;22.00;99.90
34740;DHT22;20967;48.442;9.994;2023-06-14T12:55:17;21.90;99.90
34740;DHT22;20967;48.442;9.994;2023-06-14T12:57:46;22.20;99.90
34740;DHT22;20967;48.442;9.994;2023-06-14T13:00:16;22.50;99.90
34740;DHT22;20967;48.442;9.994;2023-06-14T13:02:44;22.30;99.90
34740;DHT22;20967;48.442;9.994;2023-06-14T13:05:12;22.60;99.90
34740;DHT22;20967;48.442;9.994;2023-06-14T13:07:39;23.00;99.90
34740;DHT22;20967;48.442;9.994;2023-06-14T13:10:08;23.00;99.90
34740;DHT22;20967;48.442;9.994;2023-06-14T13:12:36;23.10;99.90
34740;DHT22;20967;48.442;9.994;2023-06-14T13:15:04;22.80;99.90
34740;DHT22;20967;48.442;9.994;2023-06-14T13:17:33;22.70;99.90
34740;DHT22;20967;48.442;9.994;2023-06-14T13:20:02;22.40;99.90
34740;DHT22;20967;48.442;9.994;2023-06-14T13:22:30;22.40;99.90
34740;DHT22;20967;48.442;9.994;2023-06-14T13:24:58;22.30;99.90
34740;DHT22;20967;48.442;9.994;2023-06-14T13:27:26;21.70;99.90
34740;DHT22;20967;48.442;9.994;2023-06-14T13:29:54;21.60;99.90
34740;DHT22;20967;48.442;9.994;2023-06-14T13:32:22;22.00;99.90
34740;DHT22;20967;48.442;9.994;2023-06-14T13:34:50;22.20;99.90
34740;DHT22;20967;48.442;9.994;2023-06-14T13:37:18;22.10;99.90
34740;DHT22;20967;48.442;9.994;2023-06-14T13:39:48;22.50;99.90
34740;DHT22;20967;48.442;9.994;2023-06-14T13:42:15;22.60;99.90
34740;DHT22;20967;48.442;9.994;2023-06-14T13:44:43;22.40;99.90
34740;DHT22;20967;48.442;9.994;2023-06-14T13:47:11;22.90;99.90
34740;DHT22;20967;48.442;9.994;2023-06-14T13:49:39;23.10;99.90
34740;DHT22;20967;48.442;9.994;2023-06-14T13:52:07;22.90;99.90
34740;DHT22;20967;48.442;9.994;2023-06-14T13:54:35;23.00;99.90
34740;DHT22;20967;48.442;9.994;2023-06-14T13:57:05;22.40;99.90
34740;DHT22;20967;48.442;9.994;2023-06-14T13:59:33;22.50;99.90
34740;DHT22;20967;48.442;9.994;2023-06-14T14:02:01;22.20;99.90
34740;DHT22;20967;48.442;9.994;2023-06-14T14:04:31;22.30;99.90
34740;DHT22;20967;48.442;9.994;2023-06-14T14:06:59;22.60;99.90
34740;DHT22;20967;48.442;9.994;2023-06-14T14:09:28;23.10;99.90
34740;DHT22;20967;48.442;9.994;2023-06-14T14:11:57;22.80;99.90
34740;DHT22;20967;48.442;9.994;2023-06-14T14:14:27;22.50;99.90
34740;DHT22;20967;48.442;9.994;2023-06-14T14:16:54;22.50;99.90
34740;DHT22;20967;48.442;9.994;2023-06-14T14:19:24;22.90;99.90
34740;DHT22;20967;48.442;9.994;2023-06-14T14:21:51;22.80;99.90
34740;DHT22;20967;48.442;9.994;2023-06-14T14:24:20;22.60;99.90
34740;DHT22;20967;48.442;9.994;2023-06-14T14:26:48;22.20;99.90
34740;DHT22;20967;48.442;9.994;2023-06-14T14:29:16;22.30;99.90
34740;DHT22;20967;48.442;9.994;2023-06-14T14:31:46;22.30;99.90
34740;DHT22;20967;48.442;9.994;2023-06-14T14:34:14;22.70;99.90
34740;DHT22;20967;48.442;9.994;2023-06-14T14:36:42;22.70;99.90
34740;DHT22;20967;48.442;9.994;2023-06-14T14:39:10;22.60;99.90
34740;DHT22;20967;48.442;9.994;2023-06-14T14:41:38;22.10;99.90
34740;DHT22;20967;48.442;9.994;2023-06-14T14:44:06;22.30;99.90
34740;DHT22;20967;48.442;9.994;2023-06-14T14:46:34;22.10;99.90
34740;DHT22;20967;48.442;9.994;2023-06-14T14:49:02;21.90;99.90
34740;DHT22;20967;48.442;9.994;2023-06-14T14:51:31;22.10;99.90
34740;DHT22;20967;48.442;9.994;2023-06-14T14:53:59;22.00;99.90
34740;DHT22;20967;48.442;9.994;2023-06-14T14:56:27;21.90;99.90
34740;DHT22;20967;48.442;9.994;2023-06-14T14:58:57;21.90;99.90
34740;DHT22;20967;48.442;9.994;2023-06-14T15:01:24;21.90;99.90
34740;DHT22;20967;48.442;9.994;2023-06-14T15:03:52;21.70;99.90
34740;DHT22;20967;48.442;9.994;2023-06-14T15:06:20;22.00;99.90
34740;DHT22;20967;48.442;9.994;2023-06-14T15:08:48;22.10;99.90
34740;DHT22;20967;48.442;9.994;2023-06-14T15:11:15;22.30;99.90
34740;DHT22;20967;48.442;9.994;2023-06-14T15:13:43;22.40;99.90
34740;DHT22;20967;48.442;9.994;2023-06-14T15:16:11;22.50;99.90
34740;DHT22;20967;48.442;9.994;2023-06-14T15:18:39;22.30;99.90
34740;DHT22;20967;48.442;9.994;2023-06-14T15:21:06;22.60;99.90
34740;DHT22;20967;48.442;9.994;2023-06-14T15:23:34;22.70;99.90
34740;DHT22;20967;48.442;9.994;2023-06-14T15:26:02;22.50;99.90
34740;DHT22;20967;48.442;9.994;2023-06-14T15:28:30;22.40;99.90
34740;DHT22;20967;48.442;9.994;2023-06-14T15:30:59;22.50;99.90
34740;DHT22;20967;48.442;9.994;2023-06-14T15:33:27;22.80;99.90
34740;DHT22;20967;48.442;9.994;2023-06-14T15:35:55;22.90;99.90
34740;DHT22;20967;48.442;9.994;2023-06-14T15:38:23;23.30;99.90
34740;DHT22;20967;48.442;9.994;2023-06-14T15:40:53;23.20;99.90
34740;DHT22;20967;48.442;9.994;2023-06-14T15:43:21;23.30;99.90
34740;DHT22;20967;48.442;9.994;2023-06-14T15:45:55;23.40;99.90
34740;DHT22;20967;48.442;9.994;2023-06-14T15:48:23;22.70;99.90
34740;DHT22;20967;48.442;9.994;2023-06-14T15:50:50;22.50;99.90
34740;DHT22;20967;48.442;9.994;2023-06-14T15:53:21;22.50;99.90
34740;DHT22;20967;48.442;9.994;2023-06-14T15:55:50;22.50;99.90